Terminal Aerodrome Forecast
Issued by NWS

Home | Current Version | Previous Version | Text Only | Print | Product List | Glossary On
Versions: 1 2 3 4 5 6 7 8 9 10 11 12 13 14 15 16 17 18 19 20 21 22 23 24 25 26 27 28 29 30
000
FTUS44 KBMX 171922 AAA
TAFEET
TAF AMD
KEET 171922Z 1719/1818 21010G20KT P6SM SCT015
     FM172100 25013KT 6SM SHRA SCT025 OVC040
     FM180600 32010KT 4SM BR OVC007
     FM181000 02005KT 6SM SHRA OVC010=

USA.gov is the U.S. government's official web portal to all federal, state and local government web resources and services.